sensor_id;sensor_type;location;lat;lon;timestamp;temperature;humidity
14142;DHT22;7151;52.246;4.820;2023-06-24T00:00:28;26.50;52.00
14142;DHT22;7151;52.246;4.820;2023-06-24T00:02:53;26.50;52.00
14142;DHT22;7151;52.246;4.820;2023-06-24T00:05:19;26.50;52.00
14142;DHT22;7151;52.246;4.820;2023-06-24T00:07:45;26.40;52.10
14142;DHT22;7151;52.246;4.820;2023-06-24T00:10:12;26.40;52.10
14142;DHT22;7151;52.246;4.820;2023-06-24T00:12:38;26.40;52.10
14142;DHT22;7151;52.246;4.820;2023-06-24T00:15:06;26.30;52.00
14142;DHT22;7151;52.246;4.820;2023-06-24T00:17:32;26.40;52.10
14142;DHT22;7151;52.246;4.820;2023-06-24T00:19:57;26.30;51.90
14142;DHT22;7151;52.246;4.820;2023-06-24T00:22:23;26.30;52.00
14142;DHT22;7151;52.246;4.820;2023-06-24T00:24:48;26.30;52.10
14142;DHT22;7151;52.246;4.820;2023-06-24T00:27:14;26.20;52.00
14142;DHT22;7151;52.246;4.820;2023-06-24T00:29:39;26.20;52.00
14142;DHT22;7151;52.246;4.820;2023-06-24T00:32:05;26.20;52.00
14142;DHT22;7151;52.246;4.820;2023-06-24T00:34:31;26.20;51.80
14142;DHT22;7151;52.246;4.820;2023-06-24T00:36:57;26.10;52.10
14142;DHT22;7151;52.246;4.820;2023-06-24T00:39:22;26.10;51.70
14142;DHT22;7151;52.246;4.820;2023-06-24T00:41:49;26.00;51.50
14142;DHT22;7151;52.246;4.820;2023-06-24T00:44:14;26.00;51.50
14142;DHT22;7151;52.246;4.820;2023-06-24T00:46:40;26.00;51.50
14142;DHT22;7151;52.246;4.820;2023-06-24T00:49:05;25.90;51.40
14142;DHT22;7151;52.246;4.820;2023-06-24T00:51:31;25.90;51.40
14142;DHT22;7151;52.246;4.820;2023-06-24T00:53:59;25.80;51.30
14142;DHT22;7151;52.246;4.820;2023-06-24T00:56:31;25.80;51.40
14142;DHT22;7151;52.246;4.820;2023-06-24T00:59:00;25.80;51.40
14142;DHT22;7151;52.246;4.820;2023-06-24T01:01:32;25.70;51.30
14142;DHT22;7151;52.246;4.820;2023-06-24T01:03:59;25.70;51.40
14142;DHT22;7151;52.246;4.820;2023-06-24T01:06:26;25.60;51.80
14142;DHT22;7151;52.246;4.820;2023-06-24T01:08:58;25.60;51.10
14142;DHT22;7151;52.246;4.820;2023-06-24T01:11:28;25.60;51.10
14142;DHT22;7151;52.246;4.820;2023-06-24T01:13:54;25.50;51.20
14142;DHT22;7151;52.246;4.820;2023-06-24T01:19:51;25.50;51.20
14142;DHT22;7151;52.246;4.820;2023-06-24T01:25:03;25.40;50.90
14142;DHT22;7151;52.246;4.820;2023-06-24T01:28:04;25.30;50.90
14142;DHT22;7151;52.246;4.820;2023-06-24T01:33:38;25.20;50.80
14142;DHT22;7151;52.246;4.820;2023-06-24T01:36:08;25.20;50.90
14142;DHT22;7151;52.246;4.820;2023-06-24T01:38:43;25.10;50.90
14142;DHT22;7151;52.246;4.820;2023-06-24T01:41:13;25.10;51.00
14142;DHT22;7151;52.246;4.820;2023-06-24T01:43:42;25.10;51.00
14142;DHT22;7151;52.246;4.820;2023-06-24T01:46:09;25.00;51.00
14142;DHT22;7151;52.246;4.820;2023-06-24T01:48:39;25.00;51.10
14142;DHT22;7151;52.246;4.820;2023-06-24T01:51:09;25.00;51.20
14142;DHT22;7151;52.246;4.820;2023-06-24T01:53:39;24.90;51.30
14142;DHT22;7151;52.246;4.820;2023-06-24T01:56:07;24.90;51.40
14142;DHT22;7151;52.246;4.820;2023-06-24T01:58:35;24.80;51.40
14142;DHT22;7151;52.246;4.820;2023-06-24T02:01:02;24.80;51.50
14142;DHT22;7151;52.246;4.820;2023-06-24T02:03:29;24.80;51.70
14142;DHT22;7151;52.246;4.820;2023-06-24T02:05:57;24.70;51.70
14142;DHT22;7151;52.246;4.820;2023-06-24T02:08:24;24.70;51.80
14142;DHT22;7151;52.246;4.820;2023-06-24T02:10:51;24.60;51.80
14142;DHT22;7151;52.246;4.820;2023-06-24T02:13:18;24.60;51.90
14142;DHT22;7151;52.246;4.820;2023-06-24T02:15:45;24.60;52.00
14142;DHT22;7151;52.246;4.820;2023-06-24T02:18:13;24.50;52.00
14142;DHT22;7151;52.246;4.820;2023-06-24T02:20:42;24.50;52.10
14142;DHT22;7151;52.246;4.820;2023-06-24T02:23:10;24.50;52.20
14142;DHT22;7151;52.246;4.820;2023-06-24T02:25:36;24.40;52.30
14142;DHT22;7151;52.246;4.820;2023-06-24T02:28:04;24.40;52.50
14142;DHT22;7151;52.246;4.820;2023-06-24T02:30:30;24.40;52.50
14142;DHT22;7151;52.246;4.820;2023-06-24T02:32:56;24.30;52.70
14142;DHT22;7151;52.246;4.820;2023-06-24T02:35:22;24.30;52.70
14142;DHT22;7151;52.246;4.820;2023-06-24T02:37:47;24.20;52.90
14142;DHT22;7151;52.246;4.820;2023-06-24T02:40:13;24.20;52.90
14142;DHT22;7151;52.246;4.820;2023-06-24T02:42:39;24.20;52.90
14142;DHT22;7151;52.246;4.820;2023-06-24T02:45:06;24.20;53.00
14142;DHT22;7151;52.246;4.820;2023-06-24T02:47:33;24.10;53.10
14142;DHT22;7151;52.246;4.820;2023-06-24T02:49:59;24.10;53.20
14142;DHT22;7151;52.246;4.820;2023-06-24T02:52:25;24.10;53.30
14142;DHT22;7151;52.246;4.820;2023-06-24T02:54:55;24.00;53.40
14142;DHT22;7151;52.246;4.820;2023-06-24T02:57:21;24.00;53.50
14142;DHT22;7151;52.246;4.820;2023-06-24T02:59:47;24.00;53.70
14142;DHT22;7151;52.246;4.820;2023-06-24T03:02:14;24.00;53.80
14142;DHT22;7151;52.246;4.820;2023-06-24T03:04:41;23.90;54.00
14142;DHT22;7151;52.246;4.820;2023-06-24T03:07:06;23.90;54.10
14142;DHT22;7151;52.246;4.820;2023-06-24T03:09:35;23.90;54.20
14142;DHT22;7151;52.246;4.820;2023-06-24T03:12:01;23.90;54.30
14142;DHT22;7151;52.246;4.820;2023-06-24T03:14:26;23.80;54.40
14142;DHT22;7151;52.246;4.820;2023-06-24T03:16:52;23.80;54.40
14142;DHT22;7151;52.246;4.820;2023-06-24T03:19:17;23.80;54.50
14142;DHT22;7151;52.246;4.820;2023-06-24T03:21:43;23.80;54.50
14142;DHT22;7151;52.246;4.820;2023-06-24T03:24:09;23.80;54.70
14142;DHT22;7151;52.246;4.820;2023-06-24T03:26:38;23.70;54.70
14142;DHT22;7151;52.246;4.820;2023-06-24T03:29:05;23.70;54.80
14142;DHT22;7151;52.246;4.820;2023-06-24T03:31:33;23.70;54.90
14142;DHT22;7151;52.246;4.820;2023-06-24T03:33:59;23.70;55.00
14142;DHT22;7151;52.246;4.820;2023-06-24T03:36:24;23.70;55.10
14142;DHT22;7151;52.246;4.820;2023-06-24T03:38:50;23.70;55.20
14142;DHT22;7151;52.246;4.820;2023-06-24T03:41:16;23.70;55.30
14142;DHT22;7151;52.246;4.820;2023-06-24T03:43:42;23.60;55.40
14142;DHT22;7151;52.246;4.820;2023-06-24T03:46:07;23.60;55.40
14142;DHT22;7151;52.246;4.820;2023-06-24T03:48:33;23.60;55.50
14142;DHT22;7151;52.246;4.820;2023-06-24T03:51:00;23.60;55.60
14142;DHT22;7151;52.246;4.820;2023-06-24T03:53:25;23.60;55.80
14142;DHT22;7151;52.246;4.820;2023-06-24T03:55:51;23.60;55.80
14142;DHT22;7151;52.246;4.820;2023-06-24T03:58:16;23.60;55.90
14142;DHT22;7151;52.246;4.820;2023-06-24T04:00:42;23.50;55.90
14142;DHT22;7151;52.246;4.820;2023-06-24T04:03:09;23.50;56.00
14142;DHT22;7151;52.246;4.820;2023-06-24T04:05:35;23.50;55.90
14142;DHT22;7151;52.246;4.820;2023-06-24T04:08:01;23.50;56.00
14142;DHT22;7151;52.246;4.820;2023-06-24T04:10:29;23.50;56.10
14142;DHT22;7151;52.246;4.820;2023-06-24T04:12:54;23.50;56.20
14142;DHT22;7151;52.246;4.820;2023-06-24T04:15:20;23.50;56.30
14142;DHT22;7151;52.246;4.820;2023-06-24T04:17:45;23.50;56.30
14142;DHT22;7151;52.246;4.820;2023-06-24T04:20:11;23.50;56.40
14142;DHT22;7151;52.246;4.820;2023-06-24T04:22:40;23.50;56.50
14142;DHT22;7151;52.246;4.820;2023-06-24T04:25:07;23.50;56.60
14142;DHT22;7151;52.246;4.820;2023-06-24T04:27:33;23.50;56.60
14142;DHT22;7151;52.246;4.820;2023-06-24T04:30:03;23.40;56.70
14142;DHT22;7151;52.246;4.820;2023-06-24T04:32:28;23.40;56.90
14142;DHT22;7151;52.246;4.820;2023-06-24T04:34:54;23.40;56.90
14142;DHT22;7151;52.246;4.820;2023-06-24T04:37:20;23.40;57.10
14142;DHT22;7151;52.246;4.820;2023-06-24T04:39:46;23.40;57.20
14142;DHT22;7151;52.246;4.820;2023-06-24T04:42:12;23.40;57.30
14142;DHT22;7151;52.246;4.820;2023-06-24T04:44:37;23.40;57.40
14142;DHT22;7151;52.246;4.820;2023-06-24T04:47:03;23.40;57.50
14142;DHT22;7151;52.246;4.820;2023-06-24T04:49:29;23.40;57.60
14142;DHT22;7151;52.246;4.820;2023-06-24T04:51:54;23.40;57.60
14142;DHT22;7151;52.246;4.820;2023-06-24T04:54:20;23.50;57.70
14142;DHT22;7151;52.246;4.820;2023-06-24T04:56:45;23.50;57.70
14142;DHT22;7151;52.246;4.820;2023-06-24T04:59:13;23.50;57.70
14142;DHT22;7151;52.246;4.820;2023-06-24T05:01:39;23.50;57.80
14142;DHT22;7151;52.246;4.820;2023-06-24T05:04:05;23.50;57.90
14142;DHT22;7151;52.246;4.820;2023-06-24T05:06:30;23.50;57.90
14142;DHT22;7151;52.246;4.820;2023-06-24T05:08:56;23.50;58.00
14142;DHT22;7151;52.246;4.820;2023-06-24T05:11:21;23.50;58.10
14142;DHT22;7151;52.246;4.820;2023-06-24T05:13:47;23.50;58.30
14142;DHT22;7151;52.246;4.820;2023-06-24T05:16:13;23.50;58.40
14142;DHT22;7151;52.246;4.820;2023-06-24T05:18:38;23.50;58.60
14142;DHT22;7151;52.246;4.820;2023-06-24T05:21:04;23.50;58.70
14142;DHT22;7151;52.246;4.820;2023-06-24T05:23:29;23.50;58.80
14142;DHT22;7151;52.246;4.820;2023-06-24T05:25:55;23.60;59.00
14142;DHT22;7151;52.246;4.820;2023-06-24T05:28:21;23.60;59.50
14142;DHT22;7151;52.246;4.820;2023-06-24T05:30:46;23.60;59.00
14142;DHT22;7151;52.246;4.820;2023-06-24T05:33:12;23.60;59.00
14142;DHT22;7151;52.246;4.820;2023-06-24T05:35:37;23.60;59.10
14142;DHT22;7151;52.246;4.820;2023-06-24T05:38:06;23.70;59.70
14142;DHT22;7151;52.246;4.820;2023-06-24T05:40:31;23.70;59.10
14142;DHT22;7151;52.246;4.820;2023-06-24T05:42:57;23.70;59.20
14142;DHT22;7151;52.246;4.820;2023-06-24T05:45:23;23.70;59.20
14142;DHT22;7151;52.246;4.820;2023-06-24T05:47:48;23.80;59.30
14142;DHT22;7151;52.246;4.820;2023-06-24T05:50:14;23.80;59.30
14142;DHT22;7151;52.246;4.820;2023-06-24T05:52:39;23.80;59.40
14142;DHT22;7151;52.246;4.820;2023-06-24T05:55:05;23.80;59.50
14142;DHT22;7151;52.246;4.820;2023-06-24T05:57:31;23.80;59.60
14142;DHT22;7151;52.246;4.820;2023-06-24T05:59:56;23.90;59.60
14142;DHT22;7151;52.246;4.820;2023-06-24T06:02:22;23.90;59.60
14142;DHT22;7151;52.246;4.820;2023-06-24T06:04:49;23.90;59.70
14142;DHT22;7151;52.246;4.820;2023-06-24T06:07:15;23.90;59.80
14142;DHT22;7151;52.246;4.820;2023-06-24T06:09:40;24.00;59.90
14142;DHT22;7151;52.246;4.820;2023-06-24T06:12:06;24.00;60.00
14142;DHT22;7151;52.246;4.820;2023-06-24T06:14:32;24.00;60.00
14142;DHT22;7151;52.246;4.820;2023-06-24T06:16:58;24.00;60.10
14142;DHT22;7151;52.246;4.820;2023-06-24T06:19:23;24.00;60.10
14142;DHT22;7151;52.246;4.820;2023-06-24T06:21:49;24.00;60.20
14142;DHT22;7151;52.246;4.820;2023-06-24T06:24:17;24.10;60.30
14142;DHT22;7151;52.246;4.820;2023-06-24T06:26:44;24.10;60.50
14142;DHT22;7151;52.246;4.820;2023-06-24T06:29:10;24.10;60.60
14142;DHT22;7151;52.246;4.820;2023-06-24T06:31:36;24.10;60.70
14142;DHT22;7151;52.246;4.820;2023-06-24T06:34:02;24.20;60.90
14142;DHT22;7151;52.246;4.820;2023-06-24T06:36:28;24.20;61.10
14142;DHT22;7151;52.246;4.820;2023-06-24T06:38:54;24.20;61.20
14142;DHT22;7151;52.246;4.820;2023-06-24T06:41:19;24.30;61.30
14142;DHT22;7151;52.246;4.820;2023-06-24T06:43:50;24.30;61.40
14142;DHT22;7151;52.246;4.820;2023-06-24T06:46:16;24.30;61.40
14142;DHT22;7151;52.246;4.820;2023-06-24T06:48:41;24.40;61.50
14142;DHT22;7151;52.246;4.820;2023-06-24T06:51:07;24.40;61.40
14142;DHT22;7151;52.246;4.820;2023-06-24T06:53:33;24.40;61.30
14142;DHT22;7151;52.246;4.820;2023-06-24T06:55:58;24.50;61.30
14142;DHT22;7151;52.246;4.820;2023-06-24T06:58:24;24.50;61.30
14142;DHT22;7151;52.246;4.820;2023-06-24T07:00:50;24.50;61.40
14142;DHT22;7151;52.246;4.820;2023-06-24T07:03:15;24.50;61.30
14142;DHT22;7151;52.246;4.820;2023-06-24T07:05:41;24.60;61.50
14142;DHT22;7151;52.246;4.820;2023-06-24T07:08:07;24.60;61.60
14142;DHT22;7151;52.246;4.820;2023-06-24T07:10:32;24.70;61.70
14142;DHT22;7151;52.246;4.820;2023-06-24T07:12:58;24.70;61.80
14142;DHT22;7151;52.246;4.820;2023-06-24T07:15:27;24.70;61.80
14142;DHT22;7151;52.246;4.820;2023-06-24T07:17:53;24.80;61.90
14142;DHT22;7151;52.246;4.820;2023-06-24T07:20:20;24.80;61.90
14142;DHT22;7151;52.246;4.820;2023-06-24T07:22:45;24.80;62.10
14142;DHT22;7151;52.246;4.820;2023-06-24T07:25:11;24.80;62.10
14142;DHT22;7151;52.246;4.820;2023-06-24T07:27:37;24.80;62.10
14142;DHT22;7151;52.246;4.820;2023-06-24T07:30:04;24.90;62.20
14142;DHT22;7151;52.246;4.820;2023-06-24T07:32:30;24.90;62.30
14142;DHT22;7151;52.246;4.820;2023-06-24T07:34:55;25.00;62.30
14142;DHT22;7151;52.246;4.820;2023-06-24T07:37:22;25.00;62.40
14142;DHT22;7151;52.246;4.820;2023-06-24T07:39:47;25.00;62.40
14142;DHT22;7151;52.246;4.820;2023-06-24T07:42:13;25.10;62.40
14142;DHT22;7151;52.246;4.820;2023-06-24T07:44:47;25.10;62.40
14142;DHT22;7151;52.246;4.820;2023-06-24T07:47:13;25.10;62.40
14142;DHT22;7151;52.246;4.820;2023-06-24T07:49:39;25.20;62.40
14142;DHT22;7151;52.246;4.820;2023-06-24T07:52:05;25.20;62.40
14142;DHT22;7151;52.246;4.820;2023-06-24T07:54:31;25.30;62.50
14142;DHT22;7151;52.246;4.820;2023-06-24T07:56:57;25.30;62.40
14142;DHT22;7151;52.246;4.820;2023-06-24T07:59:22;25.30;62.40
14142;DHT22;7151;52.246;4.820;2023-06-24T08:01:48;25.40;62.60
14142;DHT22;7151;52.246;4.820;2023-06-24T08:04:15;25.40;62.70
14142;DHT22;7151;52.246;4.820;2023-06-24T08:06:41;25.50;62.80
14142;DHT22;7151;52.246;4.820;2023-06-24T08:09:06;25.50;62.60
14142;DHT22;7151;52.246;4.820;2023-06-24T08:11:32;25.60;62.60
14142;DHT22;7151;52.246;4.820;2023-06-24T08:13:58;25.60;62.40
14142;DHT22;7151;52.246;4.820;2023-06-24T08:16:23;25.60;62.30
14142;DHT22;7151;52.246;4.820;2023-06-24T08:18:49;25.70;62.50
14142;DHT22;7151;52.246;4.820;2023-06-24T08:21:14;25.70;62.50
14142;DHT22;7151;52.246;4.820;2023-06-24T08:23:40;25.80;62.50
14142;DHT22;7151;52.246;4.820;2023-06-24T08:26:06;25.80;62.50
14142;DHT22;7151;52.246;4.820;2023-06-24T08:28:33;25.80;62.20
14142;DHT22;7151;52.246;4.820;2023-06-24T08:30:58;25.90;62.30
14142;DHT22;7151;52.246;4.820;2023-06-24T08:33:24;25.90;62.50
14142;DHT22;7151;52.246;4.820;2023-06-24T08:35:50;26.00;62.60
14142;DHT22;7151;52.246;4.820;2023-06-24T08:38:15;26.00;62.50
14142;DHT22;7151;52.246;4.820;2023-06-24T08:40:42;26.10;62.70
14142;DHT22;7151;52.246;4.820;2023-06-24T08:43:09;26.20;62.70
14142;DHT22;7151;52.246;4.820;2023-06-24T08:45:35;26.40;63.40
14142;DHT22;7151;52.246;4.820;2023-06-24T08:48:01;26.50;62.60
14142;DHT22;7151;52.246;4.820;2023-06-24T08:50:33;26.60;62.40
14142;DHT22;7151;52.246;4.820;2023-06-24T08:53:03;26.70;62.40
14142;DHT22;7151;52.246;4.820;2023-06-24T08:55:31;26.80;62.30
14142;DHT22;7151;52.246;4.820;2023-06-24T08:57:57;26.90;62.30
14142;DHT22;7151;52.246;4.820;2023-06-24T09:00:23;27.00;62.80
14142;DHT22;7151;52.246;4.820;2023-06-24T09:02:49;27.10;62.30
14142;DHT22;7151;52.246;4.820;2023-06-24T09:05:15;27.20;62.70
14142;DHT22;7151;52.246;4.820;2023-06-24T09:07:41;27.30;61.50
14142;DHT22;7151;52.246;4.820;2023-06-24T09:10:07;27.30;61.20
14142;DHT22;7151;52.246;4.820;2023-06-24T09:12:34;27.40;61.20
14142;DHT22;7151;52.246;4.820;2023-06-24T09:15:00;27.40;61.40
14142;DHT22;7151;52.246;4.820;2023-06-24T09:17:26;27.40;61.50
14142;DHT22;7151;52.246;4.820;2023-06-24T09:19:53;27.50;61.60
14142;DHT22;7151;52.246;4.820;2023-06-24T09:22:19;27.50;61.40
14142;DHT22;7151;52.246;4.820;2023-06-24T09:24:46;27.60;61.30
14142;DHT22;7151;52.246;4.820;2023-06-24T09:27:13;27.60;61.20
14142;DHT22;7151;52.246;4.820;2023-06-24T09:29:40;27.60;60.80
14142;DHT22;7151;52.246;4.820;2023-06-24T09:32:06;27.60;60.70
14142;DHT22;7151;52.246;4.820;2023-06-24T09:34:32;27.70;61.30
14142;DHT22;7151;52.246;4.820;2023-06-24T09:36:59;27.70;61.10
14142;DHT22;7151;52.246;4.820;2023-06-24T09:39:26;27.70;60.90
14142;DHT22;7151;52.246;4.820;2023-06-24T09:41:58;27.80;61.10
14142;DHT22;7151;52.246;4.820;2023-06-24T09:44:26;27.80;61.10
14142;DHT22;7151;52.246;4.820;2023-06-24T09:46:52;27.90;61.30
14142;DHT22;7151;52.246;4.820;2023-06-24T09:49:18;27.90;60.90
14142;DHT22;7151;52.246;4.820;2023-06-24T09:51:45;28.00;60.70
14142;DHT22;7151;52.246;4.820;2023-06-24T09:54:13;28.10;60.50
14142;DHT22;7151;52.246;4.820;2023-06-24T09:56:49;28.10;60.30
14142;DHT22;7151;52.246;4.820;2023-06-24T09:59:18;28.20;59.70
14142;DHT22;7151;52.246;4.820;2023-06-24T10:01:47;28.20;59.70
14142;DHT22;7151;52.246;4.820;2023-06-24T10:04:18;28.30;59.40
14142;DHT22;7151;52.246;4.820;2023-06-24T10:06:44;28.40;59.30
14142;DHT22;7151;52.246;4.820;2023-06-24T10:09:10;28.40;59.20
14142;DHT22;7151;52.246;4.820;2023-06-24T10:11:39;28.50;59.30
14142;DHT22;7151;52.246;4.820;2023-06-24T10:14:05;28.50;59.30
14142;DHT22;7151;52.246;4.820;2023-06-24T10:16:31;28.60;59.20
14142;DHT22;7151;52.246;4.820;2023-06-24T10:19:03;28.70;58.90
14142;DHT22;7151;52.246;4.820;2023-06-24T10:21:51;28.70;59.00
14142;DHT22;7151;52.246;4.820;2023-06-24T10:24:37;28.80;58.90
14142;DHT22;7151;52.246;4.820;2023-06-24T10:27:21;28.90;58.70
14142;DHT22;7151;52.246;4.820;2023-06-24T10:29:54;29.00;58.70
14142;DHT22;7151;52.246;4.820;2023-06-24T10:32:23;29.00;58.30
14142;DHT22;7151;52.246;4.820;2023-06-24T10:34:56;29.10;58.30
14142;DHT22;7151;52.246;4.820;2023-06-24T10:37:32;29.20;58.30
14142;DHT22;7151;52.246;4.820;2023-06-24T10:40:02;29.20;58.20
14142;DHT22;7151;52.246;4.820;2023-06-24T10:42:39;29.30;57.80
14142;DHT22;7151;52.246;4.820;2023-06-24T10:47:46;29.40;57.60
14142;DHT22;7151;52.246;4.820;2023-06-24T10:50:18;29.50;57.40
14142;DHT22;7151;52.246;4.820;2023-06-24T10:52:49;29.60;57.40
14142;DHT22;7151;52.246;4.820;2023-06-24T10:55:19;29.60;57.00
14142;DHT22;7151;52.246;4.820;2023-06-24T10:57:45;29.70;56.60
14142;DHT22;7151;52.246;4.820;2023-06-24T11:00:14;29.70;56.40
14142;DHT22;7151;52.246;4.820;2023-06-24T11:02:40;29.80;56.30
14142;DHT22;7151;52.246;4.820;2023-06-24T11:05:07;29.80;56.40
14142;DHT22;7151;52.246;4.820;2023-06-24T11:07:34;29.90;56.30
14142;DHT22;7151;52.246;4.820;2023-06-24T11:10:09;29.90;56.10
14142;DHT22;7151;52.246;4.820;2023-06-24T11:12:36;30.00;55.90
14142;DHT22;7151;52.246;4.820;2023-06-24T11:15:07;30.10;56.00
14142;DHT22;7151;52.246;4.820;2023-06-24T11:17:34;30.10;55.80
14142;DHT22;7151;52.246;4.820;2023-06-24T11:20:01;30.30;55.70
14142;DHT22;7151;52.246;4.820;2023-06-24T11:22:27;30.40;55.50
14142;DHT22;7151;52.246;4.820;2023-06-24T11:24:55;30.40;55.20
14142;DHT22;7151;52.246;4.820;2023-06-24T11:27:29;30.50;55.10
14142;DHT22;7151;52.246;4.820;2023-06-24T11:29:57;30.50;54.80
14142;DHT22;7151;52.246;4.820;2023-06-24T11:32:37;30.60;54.80
14142;DHT22;7151;52.246;4.820;2023-06-24T11:35:07;30.60;54.50
14142;DHT22;7151;52.246;4.820;2023-06-24T11:37:33;30.70;54.30
14142;DHT22;7151;52.246;4.820;2023-06-24T11:40:07;30.70;53.80
14142;DHT22;7151;52.246;4.820;2023-06-24T11:42:36;30.80;53.70
14142;DHT22;7151;52.246;4.820;2023-06-24T11:45:10;30.80;53.60
14142;DHT22;7151;52.246;4.820;2023-06-24T11:47:38;30.90;53.80
14142;DHT22;7151;52.246;4.820;2023-06-24T11:50:05;30.90;53.60
14142;DHT22;7151;52.246;4.820;2023-06-24T11:52:48;31.00;53.50
14142;DHT22;7151;52.246;4.820;2023-06-24T11:55:21;31.00;53.60
14142;DHT22;7151;52.246;4.820;2023-06-24T11:57:55;31.10;53.90
14142;DHT22;7151;52.246;4.820;2023-06-24T12:02:53;31.20;54.40
14142;DHT22;7151;52.246;4.820;2023-06-24T12:05:21;31.30;54.50
14142;DHT22;7151;52.246;4.820;2023-06-24T12:07:53;31.40;54.50
14142;DHT22;7151;52.246;4.820;2023-06-24T12:10:19;31.40;54.50
14142;DHT22;7151;52.246;4.820;2023-06-24T12:12:45;31.50;54.50
14142;DHT22;7151;52.246;4.820;2023-06-24T12:15:10;31.60;54.60
14142;DHT22;7151;52.246;4.820;2023-06-24T12:17:36;31.60;54.50
14142;DHT22;7151;52.246;4.820;2023-06-24T12:20:01;31.70;54.20
14142;DHT22;7151;52.246;4.820;2023-06-24T12:22:27;31.70;54.20
14142;DHT22;7151;52.246;4.820;2023-06-24T12:24:53;31.80;54.10
14142;DHT22;7151;52.246;4.820;2023-06-24T12:27:18;31.80;53.90
14142;DHT22;7151;52.246;4.820;2023-06-24T12:29:44;31.90;53.70
14142;DHT22;7151;52.246;4.820;2023-06-24T12:32:09;32.00;53.60
14142;DHT22;7151;52.246;4.820;2023-06-24T12:34:35;32.00;53.50
14142;DHT22;7151;52.246;4.820;2023-06-24T12:37:01;32.00;53.20
14142;DHT22;7151;52.246;4.820;2023-06-24T12:39:26;32.10;53.10
14142;DHT22;7151;52.246;4.820;2023-06-24T12:41:52;32.10;53.00
14142;DHT22;7151;52.246;4.820;2023-06-24T12:44:17;32.20;53.40
14142;DHT22;7151;52.246;4.820;2023-06-24T12:46:43;32.30;53.60
14142;DHT22;7151;52.246;4.820;2023-06-24T12:49:08;32.30;53.70
14142;DHT22;7151;52.246;4.820;2023-06-24T12:51:34;32.50;53.60
14142;DHT22;7151;52.246;4.820;2023-06-24T12:54:00;32.60;53.50
14142;DHT22;7151;52.246;4.820;2023-06-24T12:56:25;32.70;53.40
14142;DHT22;7151;52.246;4.820;2023-06-24T12:58:51;32.90;53.30
14142;DHT22;7151;52.246;4.820;2023-06-24T13:01:16;33.00;53.00
14142;DHT22;7151;52.246;4.820;2023-06-24T13:03:42;33.10;52.80
14142;DHT22;7151;52.246;4.820;2023-06-24T13:06:08;33.20;52.50
14142;DHT22;7151;52.246;4.820;2023-06-24T13:08:34;33.30;52.10
14142;DHT22;7151;52.246;4.820;2023-06-24T13:10:59;33.40;51.70
14142;DHT22;7151;52.246;4.820;2023-06-24T13:13:25;33.40;51.60
14142;DHT22;7151;52.246;4.820;2023-06-24T13:15:51;33.50;51.40
14142;DHT22;7151;52.246;4.820;2023-06-24T13:18:16;33.60;51.20
14142;DHT22;7151;52.246;4.820;2023-06-24T13:20:43;33.70;51.10
14142;DHT22;7151;52.246;4.820;2023-06-24T13:23:10;33.80;51.00
14142;DHT22;7151;52.246;4.820;2023-06-24T13:25:36;33.80;51.10
14142;DHT22;7151;52.246;4.820;2023-06-24T13:28:02;33.90;50.90
14142;DHT22;7151;52.246;4.820;2023-06-24T13:30:28;34.00;50.90
14142;DHT22;7151;52.246;4.820;2023-06-24T13:32:54;34.10;50.50
14142;DHT22;7151;52.246;4.820;2023-06-24T13:35:19;34.20;50.30
14142;DHT22;7151;52.246;4.820;2023-06-24T13:37:45;34.30;50.20
14142;DHT22;7151;52.246;4.820;2023-06-24T13:40:11;34.40;50.00
14142;DHT22;7151;52.246;4.820;2023-06-24T13:42:36;34.50;49.60
14142;DHT22;7151;52.246;4.820;2023-06-24T13:45:02;34.50;49.30
14142;DHT22;7151;52.246;4.820;2023-06-24T13:47:28;34.60;49.10
14142;DHT22;7151;52.246;4.820;2023-06-24T13:49:54;34.70;48.90
14142;DHT22;7151;52.246;4.820;2023-06-24T13:52:19;34.70;48.70
14142;DHT22;7151;52.246;4.820;2023-06-24T13:54:46;34.80;48.60
14142;DHT22;7151;52.246;4.820;2023-06-24T13:57:12;34.80;48.30
14142;DHT22;7151;52.246;4.820;2023-06-24T13:59:37;34.80;48.10
14142;DHT22;7151;52.246;4.820;2023-06-24T14:02:03;34.90;48.20
14142;DHT22;7151;52.246;4.820;2023-06-24T14:04:30;34.90;48.10
14142;DHT22;7151;52.246;4.820;2023-06-24T14:06:55;35.00;47.90
14142;DHT22;7151;52.246;4.820;2023-06-24T14:09:21;35.00;47.50
14142;DHT22;7151;52.246;4.820;2023-06-24T14:11:47;35.00;47.40
14142;DHT22;7151;52.246;4.820;2023-06-24T14:14:12;35.00;47.40
14142;DHT22;7151;52.246;4.820;2023-06-24T14:16:38;35.00;47.30
14142;DHT22;7151;52.246;4.820;2023-06-24T14:19:03;35.00;47.10
14142;DHT22;7151;52.246;4.820;2023-06-24T14:21:29;35.00;46.90
14142;DHT22;7151;52.246;4.820;2023-06-24T14:23:57;35.00;46.90
14142;DHT22;7151;52.246;4.820;2023-06-24T14:26:22;35.10;47.50
14142;DHT22;7151;52.246;4.820;2023-06-24T14:28:48;35.10;46.60
14142;DHT22;7151;52.246;4.820;2023-06-24T14:31:13;35.10;46.50
14142;DHT22;7151;52.246;4.820;2023-06-24T14:33:39;35.10;46.60
14142;DHT22;7151;52.246;4.820;2023-06-24T14:36:05;35.20;46.70
14142;DHT22;7151;52.246;4.820;2023-06-24T14:38:30;35.30;46.70
14142;DHT22;7151;52.246;4.820;2023-06-24T14:40:56;35.30;46.40
14142;DHT22;7151;52.246;4.820;2023-06-24T14:43:22;35.30;46.20
14142;DHT22;7151;52.246;4.820;2023-06-24T14:45:47;35.40;46.30
14142;DHT22;7151;52.246;4.820;2023-06-24T14:48:13;35.50;46.10
14142;DHT22;7151;52.246;4.820;2023-06-24T14:50:39;35.50;45.70
14142;DHT22;7151;52.246;4.820;2023-06-24T14:53:04;35.60;45.20
14142;DHT22;7151;52.246;4.820;2023-06-24T14:55:30;35.70;45.00
14142;DHT22;7151;52.246;4.820;2023-06-24T14:57:56;35.70;44.70
14142;DHT22;7151;52.246;4.820;2023-06-24T15:00:21;35.70;44.40
14142;DHT22;7151;52.246;4.820;2023-06-24T15:02:47;35.70;44.20
14142;DHT22;7151;52.246;4.820;2023-06-24T15:05:12;35.70;44.00
14142;DHT22;7151;52.246;4.820;2023-06-24T15:07:38;35.70;43.60
14142;DHT22;7151;52.246;4.820;2023-06-24T15:10:05;35.70;43.40
14142;DHT22;7151;52.246;4.820;2023-06-24T15:12:30;35.70;43.40
14142;DHT22;7151;52.246;4.820;2023-06-24T15:14:56;35.70;43.30
14142;DHT22;7151;52.246;4.820;2023-06-24T15:17:22;35.70;43.10
14142;DHT22;7151;52.246;4.820;2023-06-24T15:19:48;35.70;42.80
14142;DHT22;7151;52.246;4.820;2023-06-24T15:22:13;35.70;42.90
14142;DHT22;7151;52.246;4.820;2023-06-24T15:24:39;35.70;42.90
14142;DHT22;7151;52.246;4.820;2023-06-24T15:27:05;35.60;42.70
14142;DHT22;7151;52.246;4.820;2023-06-24T15:29:30;35.60;42.70
14142;DHT22;7151;52.246;4.820;2023-06-24T15:31:56;35.60;42.70
14142;DHT22;7151;52.246;4.820;2023-06-24T15:34:21;35.60;42.40
14142;DHT22;7151;52.246;4.820;2023-06-24T15:36:47;35.60;42.40
14142;DHT22;7151;52.246;4.820;2023-06-24T15:39:13;35.50;42.50
14142;DHT22;7151;52.246;4.820;2023-06-24T15:41:38;35.50;42.60
14142;DHT22;7151;52.246;4.820;2023-06-24T15:44:07;35.50;42.40
14142;DHT22;7151;52.246;4.820;2023-06-24T15:46:32;35.50;42.00
14142;DHT22;7151;52.246;4.820;2023-06-24T15:48:58;35.50;42.20
14142;DHT22;7151;52.246;4.820;2023-06-24T15:51:23;35.50;42.20
14142;DHT22;7151;52.246;4.820;2023-06-24T15:53:49;35.50;42.10
14142;DHT22;7151;52.246;4.820;2023-06-24T15:56:15;35.60;42.00